Time;durP1;ratioP1;P1;durP2;ratioP2;P2;SDS_P1;SDS_P2;PMS_P1;PMS_P2;Temp;Humidity;BMP_temperature;BMP_pressure;BME280_temperature;BME280_humidity;BME280_pressure;Samples;Min_cycle;Max_cycle;Signal;HPM_P1;HPM_P2
2023/04/19 00:00:42;;;;;;;5.80;5.30;;;5.70;1.00;;;;;;5055189;28;20981;-68
2023/04/19 00:03:09;;;;;;;6.93;4.40;;;5.70;1.00;;;;;;5056375;28;20729;-68
2023/04/19 00:05:37;;;;;;;15.00;4.00;;;5.60;1.00;;;;;;5055129;28;20432;-65
2023/04/19 00:08:05;;;;;;;4.87;4.40;;;5.60;1.00;;;;;;5056460;28;20865;-68
2023/04/19 00:10:31;;;;;;;6.43;3.90;;;5.60;1.00;;;;;;5055095;28;20796;-68
2023/04/19 00:12:57;;;;;;;5.10;4.60;;;5.60;1.00;;;;;;5056277;28;20528;-68
2023/04/19 00:15:23;;;;;;;5.63;4.30;;;5.60;1.00;;;;;;5056051;28;20189;-68
2023/04/19 00:17:48;;;;;;;5.07;4.63;;;5.60;1.00;;;;;;5055824;28;20269;-68
2023/04/19 00:20:14;;;;;;;5.13;4.00;;;5.50;1.00;;;;;;5059709;28;20190;-68
2023/04/19 00:22:40;;;;;;;6.00;4.10;;;5.50;1.00;;;;;;5056009;28;20198;-65
2023/04/19 00:25:08;;;;;;;5.20;4.70;;;5.40;1.00;;;;;;5055508;28;20177;-68
2023/04/19 00:27:37;;;;;;;4.83;4.30;;;5.40;1.00;;;;;;5056223;28;20467;-68
2023/04/19 00:30:03;;;;;;;4.67;4.17;;;5.30;1.00;;;;;;5055226;28;20436;-67
2023/04/19 00:32:29;;;;;;;5.60;4.50;;;5.30;1.00;;;;;;5054898;28;20467;-68
2023/04/19 00:34:54;;;;;;;5.97;4.77;;;5.20;1.00;;;;;;5055556;28;20429;-68
2023/04/19 00:37:20;;;;;;;5.57;4.53;;;5.20;1.00;;;;;;5055828;28;20229;-68
2023/04/19 00:39:46;;;;;;;4.90;4.50;;;5.10;1.00;;;;;;5057422;28;20539;-65
2023/04/19 00:42:11;;;;;;;4.50;4.07;;;5.10;1.00;;;;;;5054320;28;20733;-65
2023/04/19 00:44:37;;;;;;;4.97;4.10;;;5.10;1.00;;;;;;5054829;28;20429;-66
2023/04/19 00:47:03;;;;;;;4.87;4.20;;;5.00;1.00;;;;;;5055703;28;20214;-66
2023/04/19 00:49:29;;;;;;;5.00;4.50;;;5.00;1.00;;;;;;5055596;28;20229;-65
2023/04/19 00:51:55;;;;;;;6.70;4.60;;;5.00;1.00;;;;;;5054558;28;20431;-67
2023/04/19 00:54:21;;;;;;;4.83;4.43;;;5.00;1.00;;;;;;5053724;28;20805;-66
2023/04/19 00:56:47;;;;;;;7.47;4.97;;;5.00;1.00;;;;;;5055515;28;20276;-66
2023/04/19 00:59:14;;;;;;;4.60;3.87;;;5.00;1.00;;;;;;5057584;28;20961;-65
2023/04/19 01:01:43;;;;;;;5.27;4.77;;;5.00;1.00;;;;;;5053966;28;20186;-65
2023/04/19 01:04:09;;;;;;;4.83;4.47;;;5.00;1.00;;;;;;5065513;28;20443;-66
2023/04/19 01:06:36;;;;;;;5.07;3.17;;;5.10;1.00;;;;;;5054066;28;20898;-66
2023/04/19 01:09:03;;;;;;;6.53;4.07;;;5.10;1.00;;;;;;5054973;28;20526;-65
2023/04/19 01:11:28;;;;;;;4.50;4.20;;;5.10;1.00;;;;;;5054187;28;20490;-68
2023/04/19 01:13:55;;;;;;;4.70;4.40;;;5.20;1.00;;;;;;5054222;28;20893;-68
2023/04/19 01:16:21;;;;;;;5.33;4.60;;;5.10;1.00;;;;;;5055254;28;20201;-66
2023/04/19 01:18:47;;;;;;;4.30;3.90;;;5.20;1.00;;;;;;5054061;28;21043;-66
2023/04/19 01:21:13;;;;;;;9.60;4.43;;;5.20;1.00;;;;;;5053255;28;20649;-66
2023/04/19 01:23:39;;;;;;;4.80;4.40;;;5.20;1.00;;;;;;5054925;28;20433;-66
2023/04/19 01:26:05;;;;;;;5.47;4.33;;;5.20;1.00;;;;;;5054509;28;20586;-66
2023/04/19 01:28:31;;;;;;;5.30;4.73;;;5.20;1.00;;;;;;5054446;28;20431;-67
2023/04/19 01:30:57;;;;;;;4.67;4.30;;;5.30;1.00;;;;;;5055384;28;20436;-68
2023/04/19 01:33:23;;;;;;;5.47;3.80;;;5.30;1.00;;;;;;5055795;28;20998;-68
2023/04/19 01:35:49;;;;;;;9.17;5.37;;;5.30;1.00;;;;;;5054137;28;20640;-68
2023/04/19 01:38:15;;;;;;;5.27;4.60;;;5.30;1.00;;;;;;5054441;28;20182;-66
2023/04/19 01:40:41;;;;;;;4.50;4.10;;;5.30;1.00;;;;;;5053187;28;20429;-68
2023/04/19 01:43:09;;;;;;;6.10;4.50;;;5.30;1.00;;;;;;5054119;28;20462;-68
2023/04/19 01:45:35;;;;;;;4.17;3.87;;;5.30;1.00;;;;;;5053613;28;20186;-68
2023/04/19 01:48:03;;;;;;;7.10;5.53;;;5.20;1.00;;;;;;5054599;28;20882;-68
2023/04/19 01:50:29;;;;;;;4.40;4.10;;;5.20;1.00;;;;;;5054086;28;20441;-65
2023/04/19 01:52:55;;;;;;;4.80;4.40;;;5.10;1.00;;;;;;5054340;28;20464;-68
2023/04/19 01:55:21;;;;;;;6.20;4.00;;;5.10;1.00;;;;;;5052545;28;20460;-68
2023/04/19 01:57:51;;;;;;;4.40;4.10;;;5.00;1.00;;;;;;5053600;28;20297;-66
2023/04/19 02:00:17;;;;;;;3.83;3.53;;;5.00;1.00;;;;;;5053621;28;20524;-66
2023/04/19 02:02:43;;;;;;;4.70;4.23;;;4.90;1.00;;;;;;5053781;28;20449;-68
2023/04/19 02:05:10;;;;;;;4.20;3.80;;;4.90;1.00;;;;;;5053638;28;20805;-66
2023/04/19 02:07:36;;;;;;;4.70;3.73;;;4.90;1.00;;;;;;5063696;28;20433;-66
2023/04/19 02:10:01;;;;;;;5.77;4.27;;;4.80;1.00;;;;;;5053870;28;20826;-65
2023/04/19 02:12:28;;;;;;;5.43;4.03;;;4.80;1.00;;;;;;5052905;28;20818;-65
2023/04/19 02:14:58;;;;;;;6.43;5.83;;;4.80;1.00;;;;;;5053760;28;20532;-66
2023/04/19 02:17:24;;;;;;;5.60;4.37;;;4.80;1.00;;;;;;5053395;28;20537;-66
2023/04/19 02:19:50;;;;;;;4.60;4.20;;;4.70;1.00;;;;;;5053766;28;20408;-65
2023/04/19 02:22:19;;;;;;;4.33;3.90;;;4.80;1.00;;;;;;5063257;28;20453;-65
2023/04/19 02:24:46;;;;;;;10.33;4.73;;;4.70;1.00;;;;;;5053894;28;20883;-65
2023/04/19 02:27:12;;;;;;;5.50;5.00;;;4.70;1.00;;;;;;5053306;28;20466;-66
2023/04/19 02:29:38;;;;;;;6.27;3.93;;;4.70;1.00;;;;;;5053254;28;20409;-65
2023/04/19 02:32:05;;;;;;;5.17;4.67;;;4.60;1.00;;;;;;5052580;28;20563;-65
2023/04/19 02:34:31;;;;;;;7.90;3.70;;;4.60;1.00;;;;;;5053726;28;20404;-65
2023/04/19 02:36:57;;;;;;;7.90;4.53;;;4.60;1.00;;;;;;5052939;28;20464;-65
2023/04/19 02:39:23;;;;;;;4.50;4.10;;;4.50;1.00;;;;;;5053584;28;20494;-65
2023/04/19 02:41:49;;;;;;;5.10;4.67;;;4.50;1.00;;;;;;5052005;28;20198;-68
2023/04/19 02:44:15;;;;;;;5.13;4.50;;;4.40;1.00;;;;;;5056139;28;20307;-65
2023/04/19 02:46:40;;;;;;;4.47;4.10;;;4.40;1.00;;;;;;5053462;28;20498;-65
2023/04/19 02:49:06;;;;;;;4.23;3.93;;;4.40;1.00;;;;;;5053055;28;20185;-66
2023/04/19 02:51:32;;;;;;;5.53;4.30;;;4.30;1.00;;;;;;5052421;28;20177;-65
2023/04/19 02:53:57;;;;;;;4.93;4.40;;;4.30;1.00;;;;;;5064182;28;20201;-65
2023/04/19 02:56:23;;;;;;;3.80;3.50;;;4.30;1.00;;;;;;5053216;28;20687;-65
2023/04/19 02:58:49;;;;;;;4.70;4.20;;;4.30;1.00;;;;;;5053170;28;20642;-65
2023/04/19 03:01:14;;;;;;;6.57;4.60;;;4.30;1.00;;;;;;5051873;28;20187;-66
2023/04/19 03:03:40;;;;;;;7.33;5.00;;;4.20;1.00;;;;;;5052632;28;20210;-65
2023/04/19 03:06:06;;;;;;;5.80;4.97;;;4.20;1.00;;;;;;5052672;28;20261;-65
2023/04/19 03:08:32;;;;;;;4.73;4.33;;;4.20;1.00;;;;;;5051901;28;20185;-65
2023/04/19 03:10:58;;;;;;;4.17;3.87;;;4.20;1.00;;;;;;5051272;28;20795;-65
2023/04/19 03:13:23;;;;;;;4.23;3.93;;;4.20;1.00;;;;;;5053035;28;20193;-66
2023/04/19 03:15:49;;;;;;;3.63;3.33;;;4.20;1.00;;;;;;5054528;28;20680;-65
2023/04/19 03:18:16;;;;;;;4.73;4.23;;;4.20;1.00;;;;;;5052948;28;20163;-65
2023/04/19 03:20:42;;;;;;;4.03;3.83;;;4.20;1.00;;;;;;5052131;28;20918;-65
2023/04/19 03:23:08;;;;;;;5.30;3.90;;;4.20;1.00;;;;;;5052745;28;20505;-65
2023/04/19 03:25:33;;;;;;;4.80;4.40;;;4.20;1.00;;;;;;5066890;28;20184;-65
2023/04/19 03:27:59;;;;;;;4.30;4.00;;;4.20;1.00;;;;;;5073129;28;20173;-66
2023/04/19 03:30:25;;;;;;;5.40;4.90;;;4.10;1.00;;;;;;5056334;28;20174;-65
2023/04/19 03:32:51;;;;;;;6.77;5.20;;;4.10;1.00;;;;;;5052839;28;20231;-65
2023/04/19 03:35:16;;;;;;;9.90;4.30;;;4.00;1.00;;;;;;5052388;28;20187;-65
2023/04/19 03:37:42;;;;;;;4.53;4.10;;;4.00;1.00;;;;;;5052300;28;20676;-65
2023/04/19 03:40:08;;;;;;;5.43;4.93;;;4.00;1.00;;;;;;5051735;28;20441;-65
2023/04/19 03:42:34;;;;;;;15.33;4.40;;;4.00;1.00;;;;;;5051355;28;20718;-65
2023/04/19 03:45:00;;;;;;;5.40;4.90;;;4.00;1.00;;;;;;5050326;28;20437;-65
2023/04/19 03:47:26;;;;;;;5.13;4.70;;;3.90;1.00;;;;;;5052962;28;20172;-66
2023/04/19 03:49:52;;;;;;;5.13;4.70;;;3.90;1.00;;;;;;5055291;28;20525;-65
2023/04/19 03:52:17;;;;;;;7.17;5.30;;;3.90;1.00;;;;;;5050573;28;20595;-65
2023/04/19 03:54:46;;;;;;;4.53;4.13;;;3.90;1.00;;;;;;5052417;28;20183;-65
2023/04/19 03:57:14;;;;;;;4.30;3.90;;;3.90;1.00;;;;;;5051744;28;20295;-65
2023/04/19 03:59:39;;;;;;;5.30;4.90;;;3.90;1.00;;;;;;5055570;28;21021;-65
2023/04/19 04:02:05;;;;;;;4.77;4.37;;;4.00;1.00;;;;;;5051559;28;20507;-65
2023/04/19 04:04:31;;;;;;;6.07;4.63;;;4.00;1.00;;;;;;5052117;28;20192;-65
2023/04/19 04:06:57;;;;;;;7.40;4.60;;;4.00;7.40;;;;;;5052530;28;20463;-65
2023/04/19 04:09:22;;;;;;;5.07;4.50;;;4.00;11.40;;;;;;5052070;28;20191;-65
2023/04/19 04:11:48;;;;;;;5.80;5.03;;;4.00;15.30;;;;;;5051279;28;20203;-65
2023/04/19 04:14:14;;;;;;;7.67;4.57;;;4.00;18.20;;;;;;5053948;28;20203;-65
2023/04/19 04:16:40;;;;;;;4.50;4.10;;;4.00;23.00;;;;;;5052848;28;20450;-66
2023/04/19 04:19:06;;;;;;;7.33;4.33;;;4.00;27.10;;;;;;5052101;28;20200;-65
2023/04/19 04:21:32;;;;;;;9.03;5.50;;;4.10;29.60;;;;;;5052828;28;20226;-65
2023/04/19 04:24:00;;;;;;;10.67;3.90;;;4.10;37.00;;;;;;5055808;28;20395;-65
2023/04/19 04:26:29;;;;;;;4.93;4.60;;;4.10;46.20;;;;;;5060362;28;20260;-65
2023/04/19 04:28:55;;;;;;;6.77;4.40;;;4.10;50.40;;;;;;5055381;28;20779;-65
2023/04/19 04:31:21;;;;;;;5.80;3.63;;;4.10;56.80;;;;;;5054933;28;20567;-65
2023/04/19 04:33:47;;;;;;;5.67;4.03;;;4.20;63.30;;;;;;5055939;28;20879;-66
2023/04/19 04:36:13;;;;;;;3.73;3.43;;;4.10;68.80;;;;;;5055418;28;20463;-65
2023/04/19 04:38:39;;;;;;;4.10;3.80;;;4.20;77.90;;;;;;5055154;28;20173;-65
2023/04/19 04:41:05;;;;;;;5.07;3.70;;;4.20;90.10;;;;;;5057889;28;20170;-65
2023/04/19 04:43:32;;;;;;;4.30;3.90;;;4.30;90.50;;;;;;5066414;28;20439;-65
2023/04/19 04:45:58;;;;;;;3.83;3.00;;;4.30;90.50;;;;;;5070587;28;20432;-66
2023/04/19 04:48:24;;;;;;;5.20;3.20;;;4.40;90.50;;;;;;5055741;28;20828;-67
2023/04/19 04:50:50;;;;;;;3.33;3.03;;;4.40;90.50;;;;;;5054802;28;20798;-65
2023/04/19 04:53:15;;;;;;;3.50;2.87;;;4.50;90.50;;;;;;5055032;28;20550;-66
2023/04/19 04:55:41;;;;;;;3.10;2.90;;;4.50;90.60;;;;;;5054273;28;20200;-66
2023/04/19 04:58:07;;;;;;;3.50;3.30;;;4.60;92.80;;;;;;5053586;28;20201;-65
2023/04/19 05:00:35;;;;;;;2.80;2.70;;;4.60;96.60;;;;;;5054721;28;20176;-65
2023/04/19 05:03:01;;;;;;;10.20;3.23;;;4.60;98.70;;;;;;5064490;28;20252;-66
2023/04/19 05:05:27;;;;;;;3.23;3.00;;;4.70;99.90;;;;;;5055320;28;20399;-66
2023/04/19 05:07:52;;;;;;;2.83;2.63;;;4.80;99.90;;;;;;5054681;28;20719;-66
2023/04/19 05:10:18;;;;;;;4.67;3.23;;;4.90;99.90;;;;;;5053796;28;20177;-65
2023/04/19 05:12:44;;;;;;;2.90;2.70;;;4.90;99.90;;;;;;5054914;28;20220;-65
2023/04/19 05:15:10;;;;;;;3.23;3.03;;;5.00;99.90;;;;;;5057657;28;20185;-65
2023/04/19 05:17:36;;;;;;;3.27;2.97;;;5.10;99.90;;;;;;5063108;28;20192;-68
2023/04/19 05:20:03;;;;;;;2.33;2.13;;;5.20;99.90;;;;;;5074881;28;20399;-68
2023/04/19 05:22:29;;;;;;;3.67;3.40;;;5.30;99.90;;;;;;5054041;28;20306;-68
2023/04/19 05:24:54;;;;;;;5.23;2.97;;;5.40;99.90;;;;;;5054571;28;20508;-68
2023/04/19 05:27:20;;;;;;;2.90;2.70;;;5.50;99.90;;;;;;5055081;28;20175;-68
2023/04/19 05:29:46;;;;;;;8.17;3.40;;;5.70;99.90;;;;;;5055857;28;20181;-67
2023/04/19 05:32:11;;;;;;;3.10;2.80;;;5.80;99.90;;;;;;5059289;28;20202;-68
2023/04/19 05:34:37;;;;;;;4.60;3.20;;;5.90;97.10;;;;;;5054353;28;20248;-66
2023/04/19 05:37:04;;;;;;;3.37;3.10;;;6.10;94.10;;;;;;5053382;28;20675;-67
2023/04/19 05:39:29;;;;;;;3.67;3.47;;;6.20;91.10;;;;;;5074629;28;20177;-68
2023/04/19 05:41:55;;;;;;;4.47;3.00;;;6.30;91.10;;;;;;5067458;28;20455;-69
2023/04/19 05:44:21;;;;;;;2.97;2.77;;;6.40;73.10;;;;;;5054623;28;20194;-67
2023/04/19 05:46:46;;;;;;;2.93;2.60;;;6.50;62.20;;;;;;5061904;28;20618;-65
2023/04/19 05:49:12;;;;;;;5.43;3.10;;;6.60;41.00;;;;;;5055453;28;20216;-65
2023/04/19 05:51:37;;;;;;;4.00;2.90;;;6.70;25.50;;;;;;5056988;28;20654;-65
2023/04/19 05:54:03;;;;;;;3.10;2.90;;;6.80;13.60;;;;;;5057068;28;20606;-65
2023/04/19 05:56:29;;;;;;;3.60;2.73;;;6.90;2.30;;;;;;5054475;28;20187;-65
2023/04/19 05:58:55;;;;;;;3.03;2.83;;;7.00;1.00;;;;;;5053988;28;20262;-65
2023/04/19 06:01:21;;;;;;;4.20;3.57;;;7.00;1.00;;;;;;5053530;28;20645;-65
2023/04/19 06:03:51;;;;;;;3.57;3.23;;;7.10;1.00;;;;;;5053946;28;20417;-65
2023/04/19 06:06:18;;;;;;;3.50;3.30;;;7.20;1.00;;;;;;5052884;28;20833;-67
2023/04/19 06:08:43;;;;;;;4.10;3.80;;;7.20;1.00;;;;;;5054145;28;20429;-67
2023/04/19 06:11:09;;;;;;;4.17;3.77;;;7.30;1.00;;;;;;5052759;28;20467;-65
2023/04/19 06:13:35;;;;;;;3.93;3.23;;;7.40;1.00;;;;;;5062782;28;20202;-65
2023/04/19 06:16:02;;;;;;;3.63;3.33;;;7.40;1.00;;;;;;5054035;28;20853;-65
2023/04/19 06:18:27;;;;;;;3.60;3.30;;;7.50;1.00;;;;;;5053076;28;20663;-65
2023/04/19 06:20:53;;;;;;;3.83;3.53;;;7.50;1.00;;;;;;5052543;28;20425;-65
2023/04/19 06:23:19;;;;;;;4.40;3.20;;;7.60;1.00;;;;;;5054521;28;20623;-65
2023/04/19 06:25:47;;;;;;;6.53;3.30;;;7.70;1.00;;;;;;5053495;28;20428;-65
2023/04/19 06:28:13;;;;;;;3.57;3.20;;;7.80;1.00;;;;;;5053808;28;20543;-66
2023/04/19 06:30:39;;;;;;;6.23;3.20;;;7.90;1.00;;;;;;5051181;28;20433;-67
2023/04/19 06:33:05;;;;;;;3.13;2.70;;;7.90;1.00;;;;;;5053734;28;20435;-67
2023/04/19 06:35:31;;;;;;;4.10;3.10;;;8.00;1.00;;;;;;5051911;28;20878;-67
2023/04/19 06:37:58;;;;;;;7.60;3.63;;;8.00;1.00;;;;;;5053654;28;20167;-65
2023/04/19 06:40:24;;;;;;;3.27;3.03;;;8.10;1.00;;;;;;5052751;28;20405;-65
2023/04/19 06:42:50;;;;;;;5.90;3.40;;;8.20;1.00;;;;;;5052928;28;20922;-65
2023/04/19 06:45:15;;;;;;;3.80;3.07;;;8.20;1.00;;;;;;5068865;28;20559;-65
2023/04/19 06:47:41;;;;;;;3.53;2.67;;;8.30;1.00;;;;;;5053548;28;20164;-65
2023/04/19 06:50:07;;;;;;;4.03;2.53;;;8.40;1.00;;;;;;5052560;28;20795;-67
2023/04/19 06:52:33;;;;;;;2.97;2.20;;;8.40;1.00;;;;;;5052150;28;20210;-65
2023/04/19 06:54:59;;;;;;;2.93;2.73;;;8.40;1.00;;;;;;5052109;28;20489;-68
2023/04/19 06:57:24;;;;;;;2.37;2.17;;;8.50;1.00;;;;;;5053218;28;20229;-65
2023/04/19 06:59:52;;;;;;;3.60;2.10;;;8.60;1.00;;;;;;5052662;28;20175;-65
2023/04/19 07:02:18;;;;;;;3.43;3.00;;;8.60;1.00;;;;;;5052538;28;20544;-65
2023/04/19 07:04:44;;;;;;;5.20;3.00;;;8.70;1.00;;;;;;5053273;28;20404;-67
2023/04/19 07:07:10;;;;;;;3.20;2.80;;;8.60;1.00;;;;;;5053316;28;20501;-68
2023/04/19 07:09:35;;;;;;;2.13;2.00;;;8.70;1.00;;;;;;5053157;28;20397;-68
2023/04/19 07:12:05;;;;;;;2.67;2.50;;;8.80;1.00;;;;;;5051322;28;20210;-67
2023/04/19 07:14:31;;;;;;;2.90;2.70;;;8.90;1.00;;;;;;5053142;28;20170;-68
2023/04/19 07:16:57;;;;;;;3.90;2.80;;;8.90;1.00;;;;;;5053011;28;20806;-67
2023/04/19 07:19:23;;;;;;;2.73;2.63;;;8.90;1.00;;;;;;5053090;28;20178;-67
2023/04/19 07:21:49;;;;;;;3.23;2.20;;;9.00;1.00;;;;;;5052142;28;20568;-68
2023/04/19 07:24:15;;;;;;;4.00;2.30;;;9.00;1.00;;;;;;5052328;28;20156;-67
2023/04/19 07:26:41;;;;;;;2.60;2.50;;;9.10;1.00;;;;;;5052986;28;20406;-67
2023/04/19 07:29:07;;;;;;;2.93;2.73;;;9.10;1.00;;;;;;5052988;28;20762;-68
2023/04/19 07:31:33;;;;;;;5.83;2.73;;;9.20;1.00;;;;;;5051716;28;20225;-68
2023/04/19 07:33:58;;;;;;;2.80;2.60;;;9.40;1.00;;;;;;5053190;28;20570;-68
2023/04/19 07:36:24;;;;;;;2.37;2.27;;;9.50;1.00;;;;;;5052744;28;20284;-67
2023/04/19 07:38:50;;;;;;;3.30;3.10;;;9.40;1.00;;;;;;5052322;28;20199;-65
2023/04/19 07:41:16;;;;;;;3.30;2.27;;;9.30;1.00;;;;;;5052127;28;20164;-67
2023/04/19 07:43:42;;;;;;;2.30;2.20;;;9.50;1.00;;;;;;5052734;28;20917;-68
2023/04/19 07:46:09;;;;;;;6.30;3.10;;;9.60;1.00;;;;;;5052782;28;20407;-68
2023/04/19 07:48:36;;;;;;;2.87;2.10;;;9.70;1.00;;;;;;5052790;28;20159;-67
2023/04/19 07:51:15;;;;;;;2.50;2.30;;;9.80;1.00;;;;;;5051587;28;20384;-67
2023/04/19 07:53:42;;;;;;;6.07;2.47;;;9.80;1.00;;;;;;5051980;28;20481;-68
2023/04/19 07:56:09;;;;;;;2.30;2.13;;;9.90;1.00;;;;;;5053331;28;20910;-68
2023/04/19 07:58:36;;;;;;;2.73;2.53;;;10.00;1.00;;;;;;5056722;28;20389;-68
2023/04/19 08:01:03;;;;;;;3.00;2.53;;;10.10;1.00;;;;;;5055714;28;20403;-67
2023/04/19 08:03:30;;;;;;;2.20;2.10;;;10.10;1.00;;;;;;5056526;28;20463;-68
2023/04/19 08:05:56;;;;;;;3.50;1.90;;;10.10;1.00;;;;;;5055996;28;20403;-68
2023/04/19 08:08:23;;;;;;;2.53;2.17;;;10.20;1.00;;;;;;5056253;28;20378;-68
2023/04/19 08:10:49;;;;;;;1.67;1.57;;;10.30;1.00;;;;;;5055527;28;20476;-67
2023/04/19 08:13:15;;;;;;;2.13;2.03;;;10.40;1.00;;;;;;5056446;28;20779;-68
2023/04/19 08:15:43;;;;;;;2.47;2.13;;;10.40;1.00;;;;;;5056326;28;20396;-68
2023/04/19 08:18:09;;;;;;;2.37;2.20;;;10.50;1.00;;;;;;5056292;28;20198;-68
2023/04/19 08:20:35;;;;;;;1.73;1.63;;;10.60;1.00;;;;;;5055376;28;20443;-68
2023/04/19 08:23:02;;;;;;;2.10;2.00;;;10.70;1.00;;;;;;5055610;28;20191;-67
2023/04/19 08:25:27;;;;;;;2.27;2.17;;;10.80;1.00;;;;;;5055990;28;20370;-68
2023/04/19 08:27:54;;;;;;;2.90;2.00;;;10.70;1.00;;;;;;5056223;28;20400;-68
2023/04/19 08:30:20;;;;;;;2.00;1.90;;;10.90;1.00;;;;;;5055283;28;20193;-69
2023/04/19 08:32:46;;;;;;;2.40;2.00;;;11.00;1.00;;;;;;5055938;28;20493;-68
2023/04/19 08:35:13;;;;;;;2.90;2.70;;;11.10;1.00;;;;;;5054366;28;20444;-68
2023/04/19 08:37:38;;;;;;;1.90;1.80;;;11.30;1.00;;;;;;5055452;28;20206;-69
2023/04/19 08:40:04;;;;;;;1.60;1.50;;;11.40;1.00;;;;;;5055487;28;20434;-68
2023/04/19 08:42:33;;;;;;;1.80;1.70;;;11.50;1.00;;;;;;5055084;28;20203;-68
2023/04/19 08:45:07;;;;;;;1.57;1.43;;;11.60;1.00;;;;;;5055724;28;20388;-68
2023/04/19 08:47:33;;;;;;;2.03;1.80;;;11.60;1.00;;;;;;5057281;28;20403;-69
2023/04/19 08:50:04;;;;;;;1.50;1.40;;;11.40;1.00;;;;;;5063241;28;20484;-68
2023/04/19 08:52:33;;;;;;;1.50;1.40;;;11.50;1.00;;;;;;5055413;28;20432;-69
2023/04/19 08:55:04;;;;;;;2.80;1.80;;;11.70;1.00;;;;;;5075587;28;20860;-68
2023/04/19 08:57:31;;;;;;;1.90;1.67;;;11.90;1.00;;;;;;5069995;28;20438;-68
2023/04/19 08:59:58;;;;;;;1.50;1.40;;;12.10;1.00;;;;;;5056921;28;20400;-68
2023/04/19 09:02:24;;;;;;;3.00;1.80;;;12.30;1.00;;;;;;5060126;28;20460;-68
2023/04/19 09:04:50;;;;;;;1.83;1.37;;;12.50;1.00;;;;;;5057080;28;20404;-68
2023/04/19 09:07:26;;;;;;;1.50;1.40;;;12.60;1.00;;;;;;5054220;28;20938;-68
2023/04/19 09:10:08;;;;;;;2.20;1.77;;;12.50;1.00;;;;;;5054923;28;20173;-68
2023/04/19 09:12:35;;;;;;;1.60;1.50;;;12.50;1.00;;;;;;5054981;28;20423;-68
2023/04/19 09:15:03;;;;;;;1.77;1.67;;;12.60;1.00;;;;;;5055177;28;20396;-69
2023/04/19 09:17:30;;;;;;;2.73;2.53;;;12.70;1.00;;;;;;5054360;28;20499;-69
2023/04/19 09:19:56;;;;;;;2.10;2.00;;;12.90;1.00;;;;;;5055136;28;20880;-70
2023/04/19 09:22:22;;;;;;;2.43;1.70;;;13.10;1.00;;;;;;5054412;28;20449;-69
2023/04/19 09:24:51;;;;;;;2.70;1.20;;;13.30;1.00;;;;;;5055225;28;20405;-69
2023/04/19 09:27:29;;;;;;;3.67;1.60;;;13.50;1.00;;;;;;5054915;28;20456;-69
2023/04/19 09:29:57;;;;;;;1.93;1.80;;;13.50;1.00;;;;;;5054163;28;20399;-69
2023/04/19 09:32:27;;;;;;;2.00;1.73;;;13.80;1.00;;;;;;5066218;28;20445;-69
2023/04/19 09:34:55;;;;;;;2.70;1.40;;;14.40;1.00;;;;;;5054153;28;20472;-71
2023/04/19 09:37:21;;;;;;;2.00;1.53;;;14.80;1.00;;;;;;5057258;28;20514;-70
2023/04/19 09:39:48;;;;;;;1.67;1.57;;;14.80;1.00;;;;;;5066748;28;21023;-69
2023/04/19 09:42:16;;;;;;;1.60;1.40;;;14.90;1.00;;;;;;5067455;28;20453;-71
2023/04/19 09:45:04;;;;;;;1.50;1.40;;;15.00;1.00;;;;;;5054084;28;20430;-70
2023/04/19 09:47:31;;;;;;;2.10;1.90;;;14.80;1.00;;;;;;5054303;28;20439;-70
2023/04/19 09:50:23;;;;;;;5.87;3.00;;;15.10;1.00;;;;;;5053441;28;20937;-71
2023/04/19 09:52:51;;;;;;;5.50;3.47;;;14.70;1.00;;;;;;5051563;28;20476;-68
2023/04/19 09:55:18;;;;;;;5.70;2.87;;;14.60;1.00;;;;;;5053089;28;20429;-68
2023/04/19 09:57:44;;;;;;;4.97;3.13;;;14.90;1.00;;;;;;5051727;28;20465;-68
2023/04/19 10:00:12;;;;;;;3.83;2.63;;;15.00;1.00;;;;;;5053289;28;20425;-68
2023/04/19 10:02:40;;;;;;;2.70;2.50;;;15.10;1.00;;;;;;5054296;28;20467;-71
2023/04/19 10:05:09;;;;;;;2.23;2.03;;;14.80;1.00;;;;;;5054396;28;20401;-70
2023/04/19 10:07:36;;;;;;;3.97;2.70;;;15.00;1.00;;;;;;5054459;28;20487;-68
2023/04/19 10:10:02;;;;;;;4.87;2.43;;;15.10;1.00;;;;;;5052994;28;20464;-67
2023/04/19 10:12:30;;;;;;;3.30;1.80;;;14.80;1.00;;;;;;5053016;28;20857;-69
2023/04/19 10:14:58;;;;;;;3.50;2.50;;;14.50;1.00;;;;;;5072548;28;20430;-69
2023/04/19 10:17:25;;;;;;;3.90;2.53;;;14.70;1.00;;;;;;5073981;28;20944;-70
2023/04/19 10:20:05;;;;;;;2.70;2.50;;;15.00;1.00;;;;;;5053456;28;20472;-69
2023/04/19 10:22:36;;;;;;;3.53;2.80;;;15.50;1.00;;;;;;5054469;28;20550;-69
2023/04/19 10:25:15;;;;;;;2.37;2.17;;;16.30;1.00;;;;;;5053207;28;20425;-70
2023/04/19 10:27:47;;;;;;;3.73;2.30;;;16.20;1.00;;;;;;5053292;28;20405;-71
2023/04/19 10:30:28;;;;;;;4.63;1.87;;;16.10;1.00;;;;;;5064575;28;20461;-69
2023/04/19 10:32:56;;;;;;;2.33;2.13;;;16.30;1.00;;;;;;5053226;28;20432;-68
2023/04/19 10:35:24;;;;;;;3.00;2.20;;;16.30;1.00;;;;;;5054484;28;20421;-71
2023/04/19 10:38:07;;;;;;;2.80;1.93;;;16.40;1.00;;;;;;5052253;28;20457;-69
2023/04/19 10:40:57;;;;;;;2.73;1.67;;;16.40;1.00;;;;;;5052746;28;20901;-69
2023/04/19 10:43:24;;;;;;;3.40;1.93;;;16.40;1.00;;;;;;5057296;28;20449;-68
2023/04/19 10:45:50;;;;;;;4.67;2.17;;;16.30;1.00;;;;;;5052770;28;21028;-70
2023/04/19 10:48:36;;;;;;;2.77;2.33;;;16.50;1.00;;;;;;5053196;28;20504;-69
2023/04/19 10:51:19;;;;;;;2.23;1.70;;;16.80;99.90;;;;;;5052569;28;20416;-69
2023/04/19 10:53:53;;;;;;;2.73;2.23;;;16.40;99.90;;;;;;5053212;28;20448;-69
2023/04/19 10:56:58;;;;;;;3.50;2.23;;;16.00;99.90;;;;;;5052746;28;20441;-71
2023/04/19 10:59:30;;;;;;;3.40;1.50;;;16.30;99.90;;;;;;5053417;28;20484;-71
2023/04/19 11:01:59;;;;;;;2.10;1.90;;;16.50;99.90;;;;;;5051404;28;20548;-70
2023/04/19 11:04:31;;;;;;;2.70;2.50;;;15.70;99.90;;;;;;5053334;28;20408;-67
2023/04/19 11:07:06;;;;;;;4.27;2.57;;;15.40;99.90;;;;;;5054565;28;20936;-70
2023/04/19 11:09:38;;;;;;;3.83;2.30;;;15.70;99.90;;;;;;5053429;28;20944;-69
2023/04/19 11:12:09;;;;;;;3.67;1.83;;;16.30;99.90;;;;;;5052634;28;20484;-70
2023/04/19 11:14:58;;;;;;;2.57;2.00;;;16.70;99.90;;;;;;5056060;28;20523;-71
2023/04/19 11:17:27;;;;;;;3.40;1.93;;;16.60;99.90;;;;;;5044155;28;20469;-72
2023/04/19 11:20:10;;;;;;;6.63;2.27;;;17.40;99.90;;;;;;5052189;28;20778;-71
2023/04/19 11:22:45;;;;;;;2.60;1.57;;;18.10;1.00;;;;;;5052917;28;20428;-71
2023/04/19 11:25:17;;;;;;;3.57;2.27;;;18.00;99.90;;;;;;5064536;28;20511;-72
2023/04/19 11:27:45;;;;;;;2.20;2.00;;;17.30;99.90;;;;;;5051164;28;20491;-73
2023/04/19 11:34:09;;;;;;;3.93;2.47;;;17.20;99.90;;;;;;5052202;28;20460;-71
2023/04/19 11:36:52;;;;;;;2.50;1.80;;;17.90;99.90;;;;;;5052118;28;20951;-70
2023/04/19 11:39:18;;;;;;;2.33;2.13;;;17.80;99.90;;;;;;5051068;28;20848;-70
2023/04/19 11:41:46;;;;;;;1.80;1.70;;;17.90;99.90;;;;;;5051828;28;20496;-69
2023/04/19 11:44:20;;;;;;;1.93;1.70;;;17.90;99.90;;;;;;5052166;28;20437;-70
2023/04/19 11:47:25;;;;;;;1.63;1.53;;;18.20;99.90;;;;;;5052183;28;20401;-72
2023/04/19 11:50:36;;;;;;;2.30;2.10;;;17.60;99.90;;;;;;5066599;28;20444;-70
2023/04/19 11:53:16;;;;;;;4.37;2.83;;;17.70;99.90;;;;;;5051991;28;20448;-69
2023/04/19 11:55:52;;;;;;;7.80;2.30;;;17.20;99.90;;;;;;5054994;28;20428;-70
2023/04/19 11:59:03;;;;;;;3.23;2.47;;;17.60;99.90;;;;;;5052565;28;20478;-74
2023/04/19 12:01:31;;;;;;;4.53;2.40;;;18.20;99.90;;;;;;5044556;28;20433;-70
2023/04/19 12:03:57;;;;;;;2.37;1.90;;;17.90;99.90;;;;;;5052123;28;20789;-69
2023/04/19 12:06:31;;;;;;;2.77;2.27;;;17.60;99.90;;;;;;5062514;28;20436;-72
2023/04/19 12:08:57;;;;;;;1.93;1.60;;;16.50;99.90;;;;;;5057479;28;20217;-72
2023/04/19 12:11:25;;;;;;;2.90;2.70;;;16.20;99.90;;;;;;5051241;28;20910;-70
2023/04/19 12:14:22;;;;;;;3.23;2.63;;;16.00;99.90;;;;;;5055810;28;20885;-71
2023/04/19 12:17:08;;;;;;;2.97;2.63;;;16.60;99.90;;;;;;5055894;28;20465;-70
2023/04/19 12:19:36;;;;;;;2.50;2.10;;;16.50;99.90;;;;;;5053038;28;20454;-73
2023/04/19 12:22:09;;;;;;;2.43;2.03;;;16.80;99.90;;;;;;5052959;28;20868;-71
2023/04/19 12:24:37;;;;;;;2.67;1.80;;;17.60;99.90;;;;;;5055460;28;20918;-69
2023/04/19 12:27:03;;;;;;;2.90;2.70;;;17.60;99.90;;;;;;5051779;28;20437;-73
2023/04/19 12:29:29;;;;;;;6.63;2.57;;;17.00;99.90;;;;;;5052322;28;20405;-69
2023/04/19 12:31:55;;;;;;;3.10;2.40;;;16.60;99.90;;;;;;5050973;28;20934;-69
2023/04/19 12:34:21;;;;;;;3.50;2.77;;;16.30;99.90;;;;;;5052353;28;20487;-72
2023/04/19 12:36:47;;;;;;;2.40;2.20;;;16.20;99.90;;;;;;5051981;28;20190;-73
2023/04/19 12:39:13;;;;;;;8.40;2.73;;;16.60;99.90;;;;;;5068011;28;20428;-70
2023/04/19 12:41:39;;;;;;;3.80;2.60;;;17.10;99.90;;;;;;5068633;28;20412;-70
2023/04/19 12:44:05;;;;;;;9.17;2.20;;;17.20;99.90;;;;;;5054636;28;20488;-73
2023/04/19 12:46:34;;;;;;;3.90;2.20;;;17.50;99.90;;;;;;5055729;28;20479;-73
2023/04/19 12:49:10;;;;;;;2.60;2.40;;;17.60;99.90;;;;;;5056141;28;20475;-73
2023/04/19 12:51:41;;;;;;;2.50;2.30;;;17.10;99.90;;;;;;5052318;28;20437;-70
2023/04/19 12:54:07;;;;;;;3.90;2.50;;;16.90;99.90;;;;;;5070955;28;20437;-69
2023/04/19 12:56:34;;;;;;;6.60;2.27;;;16.70;99.90;;;;;;5070978;28;22755;-70
2023/04/19 12:59:00;;;;;;;4.50;2.30;;;16.30;99.90;;;;;;5054434;28;20512;-69
2023/04/19 13:01:26;;;;;;;3.03;2.17;;;16.00;99.90;;;;;;5054718;28;20440;-70
2023/04/19 13:03:52;;;;;;;11.03;2.40;;;16.30;99.90;;;;;;5054951;28;20453;-72
2023/04/19 13:06:18;;;;;;;2.17;2.07;;;16.70;99.90;;;;;;5056515;28;20516;-70
2023/04/19 13:08:44;;;;;;;1.93;1.63;;;17.40;99.90;;;;;;5055313;28;20409;-69